createdAt,value
2023-02-19T00:01:09.503Z,33.30
2023-02-19T00:04:15.439Z,33.19
2023-02-19T00:07:19.922Z,33.40
2023-02-19T00:10:22.946Z,33.05
2023-02-19T00:13:25.956Z,33.28
2023-02-19T00:16:31.134Z,32.84
2023-02-19T00:19:34.386Z,33.11
2023-02-19T00:22:38.730Z,33.02
2023-02-19T00:25:41.745Z,32.88
2023-02-19T00:28:44.724Z,32.89
2023-02-19T00:31:48.186Z,32.95
2023-02-19T00:34:51.194Z,32.95
2023-02-19T00:37:55.578Z,32.98
2023-02-19T00:41:00.881Z,32.95
2023-02-19T00:44:05.853Z,32.64
2023-02-19T00:47:09.106Z,34.22
2023-02-19T00:50:12.209Z,34.29
2023-02-19T00:53:16.584Z,34.65
2023-02-19T00:56:20.136Z,34.18
2023-02-19T00:59:23.146Z,34.15
2023-02-19T01:02:27.131Z,33.92
2023-02-19T01:05:30.176Z,33.91
2023-02-19T01:08:35.248Z,33.78
2023-02-19T01:11:38.577Z,33.62
2023-02-19T01:14:41.691Z,33.62
2023-02-19T01:17:44.703Z,33.79
2023-02-19T01:20:48.023Z,33.48
2023-02-19T01:23:53.426Z,33.63
2023-02-19T01:26:56.412Z,33.88
2023-02-19T01:29:59.443Z,33.69
2023-02-19T01:33:02.502Z,33.67
2023-02-19T01:36:06.767Z,33.16
2023-02-19T01:39:12.502Z,33.41
2023-02-19T01:42:17.012Z,33.57
2023-02-19T01:45:25.104Z,33.11
2023-02-19T01:48:32.656Z,32.90
2023-02-19T01:51:39.312Z,32.97
2023-02-19T01:54:45.657Z,33.26
2023-02-19T01:57:53.106Z,32.90
2023-02-19T02:00:56.294Z,32.96
2023-02-19T02:03:59.497Z,33.04
2023-02-19T02:07:24.559Z,32.95
2023-02-19T02:10:27.948Z,32.77
2023-02-19T02:13:31.455Z,32.87
2023-02-19T02:16:45.491Z,32.52
2023-02-19T02:20:04.029Z,32.57
2023-02-19T02:23:17.530Z,32.71
2023-02-19T02:26:39.210Z,32.71
2023-02-19T02:30:21.734Z,32.46
2023-02-19T02:33:32.767Z,32.38
2023-02-19T02:36:39.693Z,32.60
2023-02-19T02:39:43.975Z,32.45
2023-02-19T02:42:47.125Z,32.15
2023-02-19T02:45:51.593Z,32.23
2023-02-19T02:48:58.685Z,32.13
2023-02-19T02:52:23.453Z,32.24
2023-02-19T02:55:26.337Z,32.13
2023-02-19T02:58:30.326Z,32.31
2023-02-19T03:01:56.642Z,32.28
2023-02-19T03:05:21.988Z,31.93
2023-02-19T03:08:29.399Z,31.82
2023-02-19T03:11:51.826Z,31.90
2023-02-19T03:15:18.189Z,32.20
2023-02-19T03:18:41.820Z,32.03
2023-02-19T03:21:46.938Z,31.84
2023-02-19T03:25:12.689Z,32.18
2023-02-19T03:28:18.176Z,32.07
2023-02-19T03:31:23.596Z,32.03
2023-02-19T03:34:33.678Z,31.71
2023-02-19T03:37:42.817Z,31.88
2023-02-19T03:40:55.783Z,32.06
2023-02-19T03:44:08.927Z,31.67
2023-02-19T03:47:19.566Z,31.53
2023-02-19T03:50:28.764Z,31.93
2023-02-19T03:53:37.798Z,31.46
2023-02-19T03:56:46.669Z,31.70
2023-02-19T03:59:55.300Z,32.09
2023-02-19T04:03:06.933Z,31.95
2023-02-19T04:06:16.748Z,31.64
2023-02-19T04:09:22.126Z,31.96
2023-02-19T04:12:25.921Z,31.90
2023-02-19T04:15:32.321Z,31.52
2023-02-19T04:18:39.739Z,31.76
2023-02-19T04:21:46.591Z,31.68
2023-02-19T04:24:52.077Z,31.73
2023-02-19T04:27:55.317Z,31.44
2023-02-19T04:30:58.401Z,31.58
2023-02-19T04:34:01.371Z,31.68
2023-02-19T04:37:06.379Z,31.64
2023-02-19T04:40:10.830Z,31.50
2023-02-19T04:43:13.904Z,31.27
2023-02-19T04:46:17.295Z,31.67
2023-02-19T04:49:20.383Z,31.39
2023-02-19T04:52:24.842Z,31.38
2023-02-19T04:55:27.787Z,31.18
2023-02-19T04:58:32.191Z,31.31
2023-02-19T05:01:35.195Z,31.26
2023-02-19T05:04:38.225Z,31.33
2023-02-19T05:07:42.608Z,31.13
2023-02-19T05:10:45.635Z,31.05
2023-02-19T05:13:48.658Z,31.47
2023-02-19T05:16:51.656Z,31.05
2023-02-19T05:19:54.733Z,31.39
2023-02-19T05:22:59.086Z,31.11
2023-02-19T05:26:06.763Z,31.35
2023-02-19T05:29:09.821Z,31.30
2023-02-19T05:32:12.938Z,31.07
2023-02-19T05:35:16.238Z,30.88
2023-02-19T05:38:20.929Z,30.92
2023-02-19T05:41:26.477Z,31.03
2023-02-19T05:44:29.473Z,30.78
2023-02-19T05:47:32.484Z,31.06
2023-02-19T05:50:39.705Z,31.00
2023-02-19T05:53:45.228Z,31.15
2023-02-19T05:56:48.343Z,31.04
2023-02-19T05:59:51.400Z,31.02
2023-02-19T06:02:55.238Z,30.90
2023-02-19T06:05:58.291Z,31.13
2023-02-19T06:09:02.690Z,30.85
2023-02-19T06:12:06.185Z,31.12
2023-02-19T06:15:09.684Z,30.71
2023-02-19T06:18:12.662Z,30.96
2023-02-19T06:21:17.101Z,31.37
2023-02-19T06:24:21.517Z,31.23
2023-02-19T06:27:24.531Z,31.24
2023-02-19T06:30:27.621Z,31.59
2023-02-19T06:33:30.738Z,31.71
2023-02-19T06:36:33.803Z,31.58
2023-02-19T06:39:38.434Z,31.03
2023-02-19T06:42:41.445Z,30.86
2023-02-19T06:45:44.457Z,30.22
2023-02-19T06:48:47.515Z,30.01
2023-02-19T06:51:50.537Z,28.43
2023-02-19T06:54:55.302Z,29.42
2023-02-19T06:57:59.017Z,28.19
2023-02-19T07:01:02.114Z,28.07
2023-02-19T07:04:06.028Z,27.48
2023-02-19T07:07:12.990Z,27.42
2023-02-19T07:10:18.067Z,27.96
2023-02-19T07:13:21.018Z,27.72
2023-02-19T07:16:24.403Z,27.37
2023-02-19T07:19:27.442Z,27.65
2023-02-19T07:22:30.353Z,27.41
2023-02-19T07:25:34.704Z,27.54
2023-02-19T07:28:37.671Z,27.76
2023-02-19T07:31:40.763Z,27.93
2023-02-19T07:34:43.792Z,28.39
2023-02-19T07:37:48.380Z,28.25
2023-02-19T07:40:56.446Z,27.87
2023-02-19T07:43:59.618Z,27.84
2023-02-19T07:47:02.676Z,28.02
2023-02-19T07:50:05.931Z,28.35
2023-02-19T07:53:09.384Z,27.97
2023-02-19T07:56:15.033Z,28.22
2023-02-19T07:59:19.546Z,27.97
2023-02-19T08:02:40.101Z,28.47
2023-02-19T08:05:45.127Z,28.14
2023-02-19T08:08:48.371Z,28.40
2023-02-19T08:12:09.985Z,28.90
2023-02-19T08:15:13.009Z,28.59
2023-02-19T08:18:17.468Z,29.07
2023-02-19T08:21:21.173Z,28.88
2023-02-19T08:24:24.186Z,28.86
2023-02-19T08:27:28.523Z,28.88
2023-02-19T08:30:32.894Z,29.19
2023-02-19T08:33:36.526Z,29.17
2023-02-19T08:36:39.860Z,29.33
2023-02-19T08:39:42.889Z,29.50
2023-02-19T08:42:47.317Z,29.60
2023-02-19T08:45:53.573Z,29.65
2023-02-19T08:48:56.554Z,29.77
2023-02-19T08:51:59.585Z,29.79
2023-02-19T08:55:02.742Z,29.73
2023-02-19T08:58:07.348Z,30.57
2023-02-19T09:01:12.095Z,30.50
2023-02-19T09:04:15.398Z,29.91
2023-02-19T09:07:18.980Z,30.29
2023-02-19T09:10:22.055Z,30.08
2023-02-19T09:13:26.495Z,30.32
2023-02-19T09:16:29.518Z,30.31
2023-02-19T09:19:33.350Z,30.18
2023-02-19T09:22:36.417Z,30.09
2023-02-19T09:25:39.420Z,29.94
2023-02-19T09:28:43.808Z,29.92
2023-02-19T09:31:47.068Z,30.53
2023-02-19T09:34:51.086Z,30.43
2023-02-19T09:37:54.133Z,30.04
2023-02-19T09:40:58.113Z,30.18
2023-02-19T09:44:04.573Z,30.06
2023-02-19T09:47:16.568Z,30.28
2023-02-19T09:50:24.139Z,30.46
2023-02-19T09:53:36.369Z,30.05
2023-02-19T09:56:39.528Z,30.14
2023-02-19T09:59:47.938Z,30.31
2023-02-19T10:02:54.386Z,30.70
2023-02-19T10:05:59.055Z,30.50
2023-02-19T10:09:17.624Z,30.29
2023-02-19T10:12:25.932Z,30.08
2023-02-19T10:15:35.888Z,30.42
2023-02-19T10:18:42.392Z,30.18
2023-02-19T10:21:46.057Z,30.48
2023-02-19T10:24:53.449Z,30.24
2023-02-19T10:27:58.737Z,29.92
2023-02-19T10:31:06.686Z,30.41
2023-02-19T10:34:22.512Z,30.34
2023-02-19T10:37:25.521Z,29.86
2023-02-19T10:40:29.981Z,30.36
2023-02-19T10:43:37.532Z,30.36
2023-02-19T10:46:46.755Z,30.23
2023-02-19T10:49:51.432Z,30.18
2023-02-19T10:52:57.689Z,30.08
2023-02-19T10:56:09.336Z,30.32
2023-02-19T10:59:26.246Z,30.11
2023-02-19T11:02:32.083Z,30.45
2023-02-19T11:05:35.667Z,30.64
2023-02-19T11:08:55.284Z,31.12
2023-02-19T11:11:59.711Z,32.68
2023-02-19T11:15:22.497Z,34.54
2023-02-19T11:18:29.102Z,35.26
2023-02-19T11:21:33.033Z,35.51
2023-02-19T11:24:40.598Z,36.28
2023-02-19T11:27:56.249Z,36.69
2023-02-19T11:31:16.715Z,37.24
2023-02-19T11:34:31.684Z,36.78
2023-02-19T11:37:34.654Z,36.81
2023-02-19T11:40:42.394Z,36.58
2023-02-19T11:44:08.888Z,36.79
2023-02-19T11:47:37.505Z,35.92
2023-02-19T11:50:53.212Z,36.09
2023-02-19T11:54:09.075Z,36.57
2023-02-19T11:57:30.622Z,36.23
2023-02-19T12:00:42.021Z,36.53
2023-02-19T12:04:26.592Z,36.21
2023-02-19T12:07:51.536Z,36.19
2023-02-19T12:11:10.925Z,35.35
2023-02-19T12:14:35.030Z,35.74
2023-02-19T12:17:56.557Z,35.33
2023-02-19T12:21:12.136Z,34.86
2023-02-19T12:24:42.474Z,34.72
2023-02-19T12:27:57.046Z,34.62
2023-02-19T12:31:13.299Z,33.25
2023-02-19T12:34:36.210Z,32.96
2023-02-19T12:37:48.018Z,32.96
2023-02-19T12:41:05.187Z,33.27
2023-02-19T12:44:13.235Z,34.53
2023-02-19T12:47:20.607Z,34.57
2023-02-19T12:50:26.564Z,34.51
2023-02-19T12:53:41.381Z,34.74
2023-02-19T12:56:51.666Z,34.50
2023-02-19T13:00:03.084Z,34.46
2023-02-19T13:03:12.409Z,34.37
2023-02-19T13:06:25.573Z,34.57
2023-02-19T13:09:34.515Z,34.46
2023-02-19T13:12:43.428Z,34.89
2023-02-19T13:15:51.506Z,34.85
2023-02-19T13:18:59.452Z,34.99
2023-02-19T13:22:31.202Z,34.79
2023-02-19T13:25:50.342Z,34.85
2023-02-19T13:29:05.929Z,35.00
2023-02-19T13:32:51.032Z,35.05
2023-02-19T13:36:10.241Z,35.19
2023-02-19T13:42:28.015Z,35.01
2023-02-19T13:45:39.533Z,35.13
2023-02-19T13:48:44.497Z,35.80
2023-02-19T13:51:51.215Z,35.19
2023-02-19T13:55:14.229Z,35.35
2023-02-19T13:58:54.769Z,35.71
2023-02-19T14:02:30.771Z,35.40
2023-02-19T14:06:00.955Z,36.06
2023-02-19T14:09:03.964Z,35.83
2023-02-19T14:12:20.093Z,36.20
2023-02-19T14:15:51.355Z,36.09
2023-02-19T14:18:56.373Z,36.01
2023-02-19T14:22:00.859Z,35.85
2023-02-19T14:25:08.204Z,36.38
2023-02-19T14:28:52.426Z,36.06
2023-02-19T14:31:57.407Z,35.91
2023-02-19T14:35:00.587Z,36.10
2023-02-19T14:38:06.328Z,36.39
2023-02-19T14:41:13.671Z,36.11
2023-02-19T14:44:21.168Z,35.68
2023-02-19T14:47:26.930Z,36.08
2023-02-19T14:50:32.458Z,35.87
2023-02-19T14:53:40.816Z,35.90
2023-02-19T14:56:46.819Z,35.88
2023-02-19T14:59:55.006Z,36.21
2023-02-19T15:03:00.150Z,36.02
2023-02-19T15:06:06.827Z,35.82
2023-02-19T15:09:11.356Z,36.13
2023-02-19T15:12:20.110Z,35.42
2023-02-19T15:15:26.795Z,35.23
2023-02-19T15:18:35.697Z,35.35
2023-02-19T15:21:44.624Z,34.69
2023-02-19T15:24:49.185Z,34.85
2023-02-19T15:27:52.207Z,34.39
2023-02-19T15:31:07.840Z,34.29
2023-02-19T15:34:17.738Z,34.06
2023-02-19T15:37:21.286Z,33.17
2023-02-19T15:40:32.465Z,32.81
2023-02-19T15:43:44.610Z,32.20
2023-02-19T15:46:49.010Z,31.56
2023-02-19T15:49:58.468Z,32.32
2023-02-19T15:53:07.125Z,33.16
2023-02-19T15:56:17.590Z,33.01
2023-02-19T15:59:27.006Z,33.22
2023-02-19T16:02:30.602Z,33.56
2023-02-19T16:05:39.360Z,33.33
2023-02-19T16:08:43.900Z,32.97
2023-02-19T16:11:53.348Z,33.61
2023-02-19T16:14:56.384Z,33.81
2023-02-19T16:18:00.401Z,34.90
2023-02-19T16:21:07.214Z,34.90
2023-02-19T16:24:18.155Z,35.37
2023-02-19T16:27:32.643Z,35.08
2023-02-19T16:30:36.335Z,35.29
2023-02-19T16:33:41.362Z,34.92
2023-02-19T16:36:46.301Z,35.37
2023-02-19T16:39:49.753Z,35.43
2023-02-19T16:43:29.237Z,35.63
2023-02-19T16:46:32.288Z,35.63
2023-02-19T16:49:35.594Z,35.38
2023-02-19T16:52:42.364Z,35.48
2023-02-19T16:55:45.448Z,35.55
2023-02-19T16:58:49.921Z,35.88
2023-02-19T17:01:53.141Z,35.58
2023-02-19T17:04:56.426Z,36.11
2023-02-19T17:07:59.744Z,36.01
2023-02-19T17:11:04.067Z,35.64
2023-02-19T17:14:09.365Z,35.95
2023-02-19T17:17:12.455Z,35.64
2023-02-19T17:20:24.084Z,35.49
2023-02-19T17:23:27.104Z,35.38
2023-02-19T17:26:31.987Z,36.07
2023-02-19T17:29:37.216Z,35.94
2023-02-19T17:32:40.324Z,35.77
2023-02-19T17:35:44.970Z,35.73
2023-02-19T17:38:48.376Z,36.11
2023-02-19T17:41:51.986Z,35.46
2023-02-19T17:44:56.537Z,36.03
2023-02-19T17:47:59.915Z,35.32
2023-02-19T17:51:02.910Z,33.73
2023-02-19T17:54:08.287Z,32.84
2023-02-19T17:57:11.526Z,32.92
2023-02-19T18:00:18.124Z,32.43
2023-02-19T18:03:21.338Z,31.55
2023-02-19T18:06:24.365Z,31.35
2023-02-19T18:09:27.522Z,31.60
2023-02-19T18:12:30.587Z,31.81
2023-02-19T18:15:35.031Z,31.90
2023-02-19T18:18:38.282Z,31.85
2023-02-19T18:21:41.378Z,32.06
2023-02-19T18:24:46.872Z,32.63
2023-02-19T18:27:50.436Z,32.80
2023-02-19T18:30:55.051Z,33.05
2023-02-19T18:33:58.089Z,32.78
2023-02-19T18:37:01.128Z,33.27
2023-02-19T18:40:05.643Z,33.11
2023-02-19T18:43:08.919Z,33.47
2023-02-19T18:46:13.347Z,33.30
2023-02-19T18:49:17.489Z,33.79
2023-02-19T18:52:23.948Z,34.11
2023-02-19T18:55:26.965Z,33.83
2023-02-19T18:58:29.957Z,33.66
2023-02-19T19:01:34.435Z,34.53
2023-02-19T19:04:38.676Z,34.16
2023-02-19T19:07:41.896Z,34.38
2023-02-19T19:10:45.049Z,34.39
2023-02-19T19:13:48.021Z,34.49
2023-02-19T19:16:52.475Z,34.91
2023-02-19T19:19:56.450Z,34.98
2023-02-19T19:22:59.479Z,34.34
2023-02-19T19:26:02.510Z,34.74
2023-02-19T19:29:05.565Z,35.09
2023-02-19T19:32:10.890Z,34.74
2023-02-19T19:35:13.938Z,34.61
2023-02-19T19:38:17.271Z,34.99
2023-02-19T19:41:21.245Z,35.00
2023-02-19T19:44:24.707Z,35.35
2023-02-19T19:47:29.179Z,34.78
2023-02-19T19:50:32.269Z,35.38
2023-02-19T19:53:35.375Z,34.88
2023-02-19T19:56:42.255Z,35.12
2023-02-19T19:59:45.372Z,35.25
2023-02-19T20:02:52.130Z,35.44
2023-02-19T20:05:56.039Z,34.95
2023-02-19T20:08:59.715Z,35.03
2023-02-19T20:12:03.431Z,35.37
2023-02-19T20:15:07.266Z,35.34
2023-02-19T20:18:11.727Z,34.94
2023-02-19T20:21:15.365Z,34.97
2023-02-19T20:24:19.865Z,35.42
2023-02-19T20:27:24.394Z,35.45
2023-02-19T20:30:27.492Z,34.89
2023-02-19T20:33:31.889Z,35.70
2023-02-19T20:36:34.983Z,35.14
2023-02-19T20:39:38.056Z,35.24
2023-02-19T20:42:41.116Z,35.04
2023-02-19T20:45:46.966Z,35.02
2023-02-19T20:48:52.020Z,35.22
2023-02-19T20:51:58.177Z,35.21
2023-02-19T20:55:01.238Z,35.67
2023-02-19T20:58:04.498Z,35.32
2023-02-19T21:01:08.360Z,35.19
2023-02-19T21:04:13.100Z,34.70
2023-02-19T21:07:16.444Z,35.10
2023-02-19T21:10:19.786Z,34.70
2023-02-19T21:13:23.292Z,35.13
2023-02-19T21:16:26.620Z,34.72
2023-02-19T21:19:31.096Z,34.68
2023-02-19T21:22:34.146Z,34.42
2023-02-19T21:25:37.349Z,34.45
2023-02-19T21:28:40.738Z,34.79
2023-02-19T21:31:45.801Z,34.54
2023-02-19T21:34:50.283Z,34.50
2023-02-19T21:37:53.328Z,34.49
2023-02-19T21:40:56.414Z,34.26
2023-02-19T21:43:59.809Z,34.47
2023-02-19T21:47:02.943Z,34.19
2023-02-19T21:50:08.718Z,34.41
2023-02-19T21:53:11.754Z,33.83
2023-02-19T21:56:23.286Z,34.01
2023-02-19T21:59:26.492Z,34.22
2023-02-19T22:02:29.498Z,33.63
2023-02-19T22:05:33.913Z,33.85
2023-02-19T22:08:36.910Z,34.01
2023-02-19T22:11:40.029Z,34.12
2023-02-19T22:14:43.054Z,33.53
2023-02-19T22:17:46.828Z,33.41
2023-02-19T22:20:51.283Z,33.51
2023-02-19T22:23:55.922Z,33.50
2023-02-19T22:27:00.189Z,33.76
2023-02-19T22:30:03.361Z,33.75
2023-02-19T22:33:06.448Z,33.61
2023-02-19T22:36:16.380Z,33.91
2023-02-19T22:39:21.930Z,33.62
2023-02-19T22:42:25.409Z,33.84
2023-02-19T22:45:28.444Z,33.35
2023-02-19T22:48:31.604Z,33.48
2023-02-19T22:51:36.756Z,33.34
2023-02-19T22:54:40.844Z,33.31
2023-02-19T22:57:43.936Z,33.14
2023-02-19T23:00:47.010Z,33.37
2023-02-19T23:03:52.267Z,33.32
2023-02-19T23:06:56.758Z,33.34
2023-02-19T23:09:59.901Z,33.62
2023-02-19T23:13:02.925Z,33.50
2023-02-19T23:16:06.292Z,33.54
2023-02-19T23:19:11.697Z,33.37
2023-02-19T23:22:16.160Z,33.70
2023-02-19T23:25:19.260Z,33.25
2023-02-19T23:28:22.370Z,33.48
2023-02-19T23:31:26.859Z,33.46
2023-02-19T23:34:29.947Z,32.89
2023-02-19T23:37:34.288Z,32.91
2023-02-19T23:40:37.517Z,33.17
2023-02-19T23:43:40.543Z,33.44
2023-02-19T23:46:43.915Z,33.19
2023-02-19T23:49:46.986Z,33.44
2023-02-19T23:52:51.374Z,33.24
2023-02-19T23:55:54.396Z,33.37
2023-02-19T23:58:57.460Z,33.45
